Impacts METAR Board
IDs:

KFLL - Ft Lauderdale-Hollyw, FL, US

Updated at: 1300 UTC 07 Jul 2020
Potential Impact None Slight Moderate High
Time 07/01Z 07/02Z 07/03Z 07/04Z 07/05Z 07/06Z 07/07Z 07/08Z 07/09Z 07/10Z 07/11Z 07/12Z 07/13Z
Temp84 83 82 81 80 80 80 80 79 80 80 82 85
Dewpt75 75 76 76 77 77 77 76 76 75 77 79 76
Altim30.05 30.07 30.08 30.09 30.08 30.07 30.04 30.03 30.04 30.04 30.05 30.06 30.07
VIS10 10 10 10 10 10 10 10 10 10 10 10 10
CIG250 -- -- -- -- -- -- -- -- -- -- 250 250
CoverBKNFEWSCTSCTSCTSCTSCTSCTSCTSCTSCTOVCBKN
FltCatVFRVFRVFRVFRVFRVFRVFRVFRVFRVFRVFRVFRVFR
WX----------TS--------------
WDir900001036030360034034020130
WSpd4 0 0 0 3 3 3 3 0 3 3 4 6
WGst-- -- -- -- -- -- -- -- -- -- -- -- --
Raw hourly METARs
KFLL 070053Z 09004KT 10SM FEW030 FEW110 SCT200 BKN250 29/24 A3005 RMK AO2 SLP177 T02890239
KFLL 070153Z 00000KT 10SM FEW030 28/24 A3007 RMK AO2 SLP182 T02830239
KFLL 070253Z 00000KT 10SM FEW150 SCT250 28/24 A3008 RMK AO2 SLP187 T02780244 53012
KFLL 070353Z 00000KT 10SM FEW150 SCT250 27/24 A3009 RMK AO2 SLP188 T02720244
KFLL 070453Z 01003KT 10SM SCT250 27/25 A3008 RMK AO2 SLP185 T02670250 403220244
KFLL 070553Z 36003KT 10SM TS FEW035CB SCT250 27/25 A3007 RMK AO2 TSB52 SLP181 OCNL LTGICCG E TS E MOV E T02670250 10289 20267 58005
KFLL 070653Z 03003KT 10SM FEW017 SCT250 27/25 A3004 RMK AO2 TSE20 SLP172 T02670250
KFLL 070753Z 36003KT 10SM FEW017 SCT250 27/24 A3003 RMK AO2 SLP170 T02670244
KFLL 070853Z 00000KT 10SM SCT250 26/24 A3004 RMK AO2 SLP170 T02610244 55011
KFLL 070953Z 34003KT 10SM SCT250 27/24 A3004 RMK AO2 SLP173 T02670239
KFLL 071053Z 34003KT 10SM FEW020 SCT250 27/25 A3005 RMK AO2 SLP175 CB DSNT NE T02670250
KFLL 071153Z 02004KT 10SM FEW020 OVC250 28/26 A3006 RMK AO2 SLP178 70016 T02780261 10278 20261 52007
KFLL 071253Z 13006KT 10SM FEW020 BKN250 29/24 A3007 RMK AO2 SLP183 T02940244



Page loaded:  13:50 UTC  |   06:50 AM Pacific  |   07:50 AM Mountain  |   08:50 AM Central  |   09:50 AM Eastern

 

ADVISORIES

FORECASTS

FORECASTS

OBSERVATIONS

USER TOOLS

ABOUT US